Time;durP1;ratioP1;P1;durP2;ratioP2;P2;SDS_P1;SDS_P2;PMS_P1;PMS_P2;Temp;Humidity;BMP_temperature;BMP_pressure;BME280_temperature;BME280_humidity;BME280_pressure;Samples;Min_cycle;Max_cycle;Signal;HPM_P1;HPM_P2
2022/05/10 00:00:26;;;;;;;16.48;11.68;;;;;;;6.79;92.63;98917.97;1703174;82;20930;-88
2022/05/10 00:02:55;;;;;;;21.57;12.82;;;;;;;6.78;91.59;98914.99;1738075;82;21063;-80
2022/05/10 00:05:27;;;;;;;21.55;13.25;;;;;;;6.75;90.90;98920.83;1737959;81;21238;-79
2022/05/10 00:07:53;;;;;;;19.70;12.37;;;;;;;6.74;91.62;98917.84;1722395;82;21021;-79
2022/05/10 00:10:19;;;;;;;19.07;13.40;;;;;;;6.69;92.22;98915.86;1723235;82;20975;-89
2022/05/10 00:12:45;;;;;;;24.12;13.45;;;;;;;6.63;93.12;98924.86;1717426;80;21058;-80
2022/05/10 00:15:11;;;;;;;22.98;13.55;;;;;;;6.55;93.07;98913.08;1737694;80;21055;-79
2022/05/10 00:17:38;;;;;;;23.10;12.47;;;;;;;6.56;92.87;98916.59;1740887;80;21001;-80
2022/05/10 00:20:07;;;;;;;20.70;12.25;;;;;;;6.54;92.92;98916.02;1736905;80;21009;-89
2022/05/10 00:22:33;;;;;;;;;;;;;;;6.53;93.33;98916.54;1745954;81;21076;-80
2022/05/10 00:24:59;;;;;;;19.67;12.70;;;;;;;6.50;93.52;98911.10;1743282;82;20169;-89
2022/05/10 00:27:25;;;;;;;24.25;12.82;;;;;;;6.49;93.89;98921.58;1740208;81;20862;-89
2022/05/10 00:29:51;;;;;;;17.40;12.05;;;;;;;6.45;94.47;98917.69;1708609;82;21127;-88
2022/05/10 00:32:17;;;;;;;22.10;12.73;;;;;;;6.42;93.84;98922.20;1722286;80;21635;-80
2022/05/10 00:34:43;;;;;;;17.12;11.53;;;;;;;6.39;93.42;98921.30;1730687;82;20901;-80
2022/05/10 00:37:11;;;;;;;21.25;11.75;;;;;;;6.37;93.25;98920.72;1738883;81;21579;-89
2022/05/10 00:39:37;;;;;;;20.77;12.25;;;;;;;6.34;93.43;98917.15;1731777;82;20999;-80
2022/05/10 00:42:17;;;;;;;18.30;12.35;;;;;;;6.37;93.45;98918.02;1705437;82;21129;-86
2022/05/10 00:44:59;;;;;;;20.37;12.80;;;;;;;6.38;93.45;98913.45;1715316;82;21016;-80
2022/05/10 00:47:38;;;;;;;18.42;11.12;;;;;;;6.37;93.13;98909.13;1743907;81;21076;-79
2022/05/10 00:50:24;;;;;;;23.70;12.45;;;;;;;6.33;94.00;98912.00;1726071;82;21466;-79
2022/05/10 00:52:55;;;;;;;19.75;11.38;;;;;;;6.28;93.33;98911.86;1717846;80;21053;-89
2022/05/10 00:55:36;;;;;;;16.62;10.93;;;;;;;6.20;93.37;98904.93;1735814;80;21068;-89
2022/05/10 00:58:07;;;;;;;19.37;12.60;;;;;;;6.18;92.74;98904.34;1729056;82;21005;-81
2022/05/10 01:00:32;;;;;;;18.32;11.35;;;;;;;6.16;93.12;98899.73;1718117;82;20999;-90
2022/05/10 01:03:30;;;;;;;17.37;11.18;;;;;;;6.09;94.96;98903.85;1712046;80;20879;-89
2022/05/10 01:06:13;;;;;;;17.67;12.33;;;;;;;6.11;94.15;98897.70;1742693;80;21033;-90
2022/05/10 01:08:45;;;;;;;17.40;11.00;;;;;;;6.09;94.65;98893.61;1724782;81;21293;-90
2022/05/10 01:11:18;;;;;;;20.90;11.85;;;;;;;6.09;93.67;98893.09;1714107;83;21089;-81
2022/05/10 01:13:52;;;;;;;17.98;11.33;;;;;;;6.09;94.42;98886.89;1724107;80;20995;-81
2022/05/10 01:16:20;;;;;;;21.07;11.83;;;;;;;6.07;95.05;98889.00;1728827;82;21016;-81
2022/05/10 01:18:47;;;;;;;20.55;11.65;;;;;;;6.09;95.02;98888.23;1714229;82;21460;-81
2022/05/10 01:21:58;;;;;;;16.17;10.53;;;;;;;6.09;93.02;98886.36;1695773;83;21171;-80
2022/05/10 01:24:45;;;;;;;17.32;10.95;;;;;;;6.10;93.18;98885.84;1721386;80;21022;-80
2022/05/10 01:27:39;;;;;;;19.50;10.98;;;;;;;6.11;95.13;98887.47;1716567;82;21038;-88
2022/05/10 01:30:10;;;;;;;18.90;10.13;;;;;;;6.10;93.57;98883.14;1743263;82;21001;-90
2022/05/10 01:35:56;;;;;;;18.85;11.90;;;;;;;5.98;92.29;98882.27;1731335;82;21140;-89
2022/05/10 01:38:45;;;;;;;15.75;10.75;;;;;;;5.92;93.22;98884.84;1710779;83;21151;-80
2022/05/10 01:41:23;;;;;;;;;;;;;;;5.88;94.31;98888.17;1708362;82;21030;-80
2022/05/10 01:44:15;;;;;;;22.77;13.45;;;;;;;5.85;93.61;98876.01;1720808;80;20155;-80
2022/05/10 01:46:41;;;;;;;14.70;9.40;;;;;;;5.81;93.33;98883.40;1718630;82;21164;-80
2022/05/10 01:49:15;;;;;;;18.98;11.30;;;;;;;5.74;94.00;98880.00;1732644;80;21878;-80
2022/05/10 01:51:53;;;;;;;16.50;10.65;;;;;;;5.65;94.12;98883.01;1723565;80;21589;-80
2022/05/10 01:54:43;;;;;;;15.40;11.30;;;;;;;5.61;93.24;98873.73;1725162;80;21038;-89
2022/05/10 01:57:12;;;;;;;16.87;10.45;;;;;;;5.54;94.21;98881.59;1710580;82;21013;-89
2022/05/10 01:59:38;;;;;;;14.68;8.75;;;;;;;5.49;93.96;98878.25;1678731;82;21077;-79
2022/05/10 02:02:05;;;;;;;15.58;10.20;;;;;;;5.47;93.55;98879.50;1733877;82;22011;-88
2022/05/10 02:04:34;;;;;;;15.88;10.50;;;;;;;5.43;94.66;98879.66;1728860;80;20998;-80
2022/05/10 02:07:11;;;;;;;17.02;9.55;;;;;;;5.43;92.79;98876.98;1717117;82;21057;-80
2022/05/10 02:09:44;;;;;;;23.60;10.00;;;;;;;5.37;92.66;98870.63;1718242;80;21043;-80
2022/05/10 02:12:21;;;;;;;17.37;10.45;;;;;;;5.32;92.19;98876.70;1736983;80;21033;-80
2022/05/10 02:14:56;;;;;;;17.10;10.10;;;;;;;5.32;92.39;98882.07;1724026;82;21848;-90
2022/05/10 02:17:27;;;;;;;18.65;10.20;;;;;;;5.28;91.44;98878.70;1688083;82;21006;-89
2022/05/10 02:20:06;;;;;;;19.25;10.82;;;;;;;5.24;90.37;98885.58;1713779;83;21018;-80
2022/05/10 02:22:44;;;;;;;16.37;9.90;;;;;;;5.18;92.44;98881.91;1728379;80;21520;-82
2022/05/10 02:25:19;;;;;;;16.10;10.60;;;;;;;5.16;93.90;98879.16;1742770;80;21265;-78
2022/05/10 02:27:50;;;;;;;12.73;8.73;;;;;;;5.16;94.46;98879.98;1724664;82;21035;-85
2022/05/10 02:30:21;;;;;;;15.80;9.80;;;;;;;5.15;94.04;98869.45;1724528;82;21029;-82
2022/05/10 02:33:07;;;;;;;17.00;10.43;;;;;;;5.13;93.81;98875.55;1720671;82;21069;-85
2022/05/10 02:35:56;;;;;;;17.10;8.83;;;;;;;5.11;94.21;98867.72;1735728;82;21072;-76
2022/05/10 02:38:40;;;;;;;13.28;9.28;;;;;;;5.08;94.58;98866.84;1743160;81;21468;-80
2022/05/10 02:41:19;;;;;;;14.80;9.28;;;;;;;5.08;94.17;98865.50;1730521;82;21250;-80
2022/05/10 02:43:58;;;;;;;12.78;9.55;;;;;;;5.03;93.98;98871.52;1715671;80;21128;-89
2022/05/10 02:46:24;;;;;;;15.93;9.55;;;;;;;4.97;93.99;98876.47;1726961;82;21032;-85
2022/05/10 02:48:50;;;;;;;17.25;9.85;;;;;;;4.93;93.93;98871.75;1714951;82;20846;-78
2022/05/10 02:51:17;;;;;;;14.95;9.85;;;;;;;4.92;93.34;98866.08;1720431;80;20907;-81
2022/05/10 02:53:45;;;;;;;13.65;9.28;;;;;;;4.88;93.81;98871.61;1727717;80;21022;-85
2022/05/10 02:56:13;;;;;;;13.00;8.55;;;;;;;4.89;93.93;98862.51;1725986;82;21009;-83
2022/05/10 02:58:56;;;;;;;15.30;8.93;;;;;;;4.90;94.43;98866.83;1717774;81;21469;-86
2022/05/10 03:01:46;;;;;;;14.50;8.63;;;;;;;4.89;93.02;98867.88;1730745;82;21061;-82
2022/05/10 03:04:12;;;;;;;14.47;8.40;;;;;;;4.87;91.90;98868.59;1714830;82;21200;-83
2022/05/10 03:06:39;;;;;;;22.42;9.28;;;;;;;4.84;92.95;98869.05;1725109;80;21078;-85
2022/05/10 03:09:06;;;;;;;14.55;8.45;;;;;;;4.81;92.24;98863.61;1729891;80;21032;-80
2022/05/10 03:11:32;;;;;;;16.93;9.18;;;;;;;4.77;92.61;98867.77;1743192;81;21014;-81
2022/05/10 03:13:59;;;;;;;16.73;9.00;;;;;;;4.75;92.36;98868.52;1743007;82;21032;-81
2022/05/10 03:16:25;;;;;;;14.87;9.10;;;;;;;4.71;93.90;98870.84;1743225;81;21080;-81
2022/05/10 03:18:52;;;;;;;16.82;9.90;;;;;;;4.71;92.12;98868.16;1715449;80;22289;-81
2022/05/10 03:21:18;;;;;;;16.30;9.13;;;;;;;4.70;93.36;98865.66;1727985;80;21026;-81
2022/05/10 03:23:44;;;;;;;16.30;9.58;;;;;;;4.67;94.93;98864.77;1728447;80;21560;-88
2022/05/10 03:26:12;;;;;;;16.90;9.78;;;;;;;4.68;94.39;98868.58;1732838;80;20890;-81
2022/05/10 03:28:38;;;;;;;12.88;8.53;;;;;;;4.69;93.00;98863.50;1749297;80;21765;-84
2022/05/10 03:31:08;;;;;;;16.12;10.40;;;;;;;4.65;92.30;98867.69;1714045;80;22017;-85
2022/05/10 03:33:34;;;;;;;14.95;9.50;;;;;;;4.65;94.50;98865.52;1721886;82;21018;-86
2022/05/10 03:36:00;;;;;;;14.23;9.65;;;;;;;4.68;93.48;98860.52;1718195;80;20921;-81
2022/05/10 03:38:26;;;;;;;17.65;9.00;;;;;;;4.71;93.71;98865.47;1727025;81;20879;-86
2022/05/10 03:40:52;;;;;;;15.10;9.90;;;;;;;4.72;93.85;98868.45;1732948;80;21014;-86
2022/05/10 03:43:18;;;;;;;14.38;10.30;;;;;;;4.72;94.04;98870.31;1744773;80;21357;-80
2022/05/10 03:45:44;;;;;;;14.25;10.18;;;;;;;4.73;93.78;98869.27;1717166;80;21568;-85
2022/05/10 03:48:10;;;;;;;14.30;9.30;;;;;;;4.73;93.67;98862.03;1727939;80;21038;-85
2022/05/10 03:50:36;;;;;;;22.87;11.97;;;;;;;4.78;93.40;98861.35;1731200;80;20992;-80
2022/05/10 03:53:02;;;;;;;14.95;9.83;;;;;;;4.83;92.82;98856.15;1742971;81;21005;-79
2022/05/10 03:55:28;;;;;;;25.45;9.05;;;;;;;4.85;93.88;98849.20;1742542;82;20929;-80
2022/05/10 03:57:54;;;;;;;14.83;9.13;;;;;;;4.91;93.49;98849.67;1740481;81;21033;-83
2022/05/10 04:00:24;;;;;;;19.75;10.70;;;;;;;4.92;93.60;98852.65;1741906;82;21020;-80
2022/05/10 04:02:50;;;;;;;22.75;8.78;;;;;;;5.03;93.28;98843.84;1749193;80;20923;-80
2022/05/10 04:05:16;;;;;;;14.30;9.13;;;;;;;5.10;92.83;98842.72;1738328;82;20977;-80
2022/05/10 04:07:42;;;;;;;14.10;8.83;;;;;;;5.19;94.08;98839.22;1743145;81;21954;-80
2022/05/10 04:10:09;;;;;;;13.88;8.75;;;;;;;5.29;92.52;98839.50;1742031;82;21013;-85
2022/05/10 04:12:36;;;;;;;20.82;10.58;;;;;;;5.37;93.95;98834.34;1737368;81;21014;-85
2022/05/10 04:15:04;;;;;;;16.30;10.90;;;;;;;5.51;93.47;98831.79;1721614;80;21019;-86
2022/05/10 04:17:30;;;;;;;22.32;11.88;;;;;;;5.62;93.82;98825.63;1728366;80;21022;-79
2022/05/10 04:19:56;;;;;;;19.40;12.00;;;;;;;5.79;93.93;98829.84;1720508;82;21624;-80
2022/05/10 04:22:22;;;;;;;30.50;15.03;;;;;;;6.02;91.92;98831.82;1741105;80;20957;-80
2022/05/10 04:24:48;;;;;;;31.62;17.45;;;;;;;6.13;92.14;98832.36;1743057;82;21571;-85
2022/05/10 04:27:14;;;;;;;27.32;13.13;;;;;;;6.26;91.88;98834.03;1742961;81;20885;-80
2022/05/10 04:29:40;;;;;;;24.30;13.55;;;;;;;6.45;92.03;98831.53;1743050;82;20929;-80
2022/05/10 04:32:06;;;;;;;15.03;9.05;;;;;;;6.60;91.84;98831.61;1718414;82;21089;-80
2022/05/10 04:34:32;;;;;;;12.43;8.08;;;;;;;6.68;92.29;98832.61;1742884;82;21001;-85
2022/05/10 04:36:58;;;;;;;62.85;20.12;;;;;;;6.76;91.91;98834.95;1743269;81;20985;-80
2022/05/10 04:39:24;;;;;;;28.67;15.28;;;;;;;6.92;91.63;98832.03;1743205;82;20909;-86
2022/05/10 04:41:52;;;;;;;26.30;13.78;;;;;;;7.12;91.39;98827.63;1722033;82;20876;-86
2022/05/10 04:44:18;;;;;;;24.52;13.85;;;;;;;7.24;90.67;98829.77;1711164;80;21775;-86
2022/05/10 04:46:44;;;;;;;26.60;14.70;;;;;;;7.33;89.86;98830.49;1738088;80;20952;-86
2022/05/10 04:49:12;;;;;;;23.98;14.55;;;;;;;7.38;89.88;98839.23;1743257;82;20964;-86
2022/05/10 04:51:39;;;;;;;26.23;13.70;;;;;;;7.43;89.93;98832.57;1724163;82;21203;-85
2022/05/10 04:54:06;;;;;;;23.30;13.62;;;;;;;7.51;89.73;98829.50;1705213;82;21077;-81
2022/05/10 04:56:32;;;;;;;24.47;13.62;;;;;;;7.60;89.71;98829.40;1705830;83;21211;-86
2022/05/10 04:58:57;;;;;;;28.07;13.53;;;;;;;7.77;89.69;98825.94;1713564;80;22689;-86
2022/05/10 05:01:26;;;;;;;65.28;29.20;;;;;;;7.88;89.23;98834.52;1748279;81;20928;-86
2022/05/10 05:03:55;;;;;;;35.85;21.97;;;;;;;8.02;89.24;98830.44;1726435;81;21029;-80
2022/05/10 05:06:20;;;;;;;20.25;13.22;;;;;;;8.17;89.03;98830.71;1734906;81;21020;-81
2022/05/10 05:08:46;;;;;;;18.40;12.28;;;;;;;8.31;88.35;98830.41;1719751;82;21017;-80
2022/05/10 05:11:12;;;;;;;19.40;11.48;;;;;;;8.35;88.03;98828.86;1743072;81;20961;-80
2022/05/10 05:13:38;;;;;;;23.73;10.70;;;;;;;8.46;87.73;98830.69;1742969;81;20970;-86
2022/05/10 05:16:06;;;;;;;15.95;10.88;;;;;;;8.58;87.24;98829.23;1729500;82;20882;-80
2022/05/10 05:18:32;;;;;;;25.68;13.03;;;;;;;8.66;87.13;98830.17;1726622;81;21081;-80
2022/05/10 05:20:58;;;;;;;24.85;12.58;;;;;;;8.76;87.15;98827.61;1730756;80;21285;-80
2022/05/10 05:23:24;;;;;;;21.15;10.95;;;;;;;8.90;86.99;98821.34;1725890;82;20875;-86
2022/05/10 05:25:53;;;;;;;19.98;11.22;;;;;;;9.07;86.63;98824.81;1722312;82;20957;-86
2022/05/10 05:28:18;;;;;;;18.42;11.70;;;;;;;9.21;86.09;98820.66;1723594;82;21018;-86
2022/05/10 05:30:44;;;;;;;19.77;11.80;;;;;;;9.33;86.45;98820.55;1731816;80;20985;-81
2022/05/10 05:33:11;;;;;;;19.85;10.93;;;;;;;9.55;85.67;98820.52;1730479;81;21308;-86
2022/05/10 05:35:37;;;;;;;20.72;10.98;;;;;;;9.69;84.70;98825.01;1725222;80;21002;-86
2022/05/10 05:38:03;;;;;;;14.47;9.58;;;;;;;9.83;84.77;98816.24;1728172;80;20990;-80
2022/05/10 05:40:29;;;;;;;15.90;9.68;;;;;;;9.98;83.59;98820.97;1721064;80;21146;-86
2022/05/10 05:42:55;;;;;;;16.70;9.53;;;;;;;10.09;83.17;98816.48;1717140;82;20862;-86
2022/05/10 05:45:23;;;;;;;14.80;9.88;;;;;;;10.18;82.88;98811.69;1728929;82;21314;-81
2022/05/10 05:47:50;;;;;;;20.70;10.87;;;;;;;10.29;82.56;98813.16;1727143;82;21037;-80
2022/05/10 05:50:18;;;;;;;16.50;10.88;;;;;;;10.38;82.54;98809.71;1724867;82;21068;-86
2022/05/10 05:52:44;;;;;;;17.67;10.63;;;;;;;10.51;82.28;98814.39;1725328;81;21043;-86
2022/05/10 05:55:11;;;;;;;17.40;10.70;;;;;;;10.64;82.29;98814.78;1736816;81;21139;-80
2022/05/10 05:57:37;;;;;;;15.48;10.48;;;;;;;10.81;82.10;98815.97;1719827;82;21157;-82
2022/05/10 06:00:09;;;;;;;18.37;11.08;;;;;;;11.03;81.42;98817.73;1699181;84;20961;-83
2022/05/10 06:02:36;;;;;;;14.35;8.70;;;;;;;11.17;81.75;98817.52;1727114;81;21504;-89
2022/05/10 06:05:02;;;;;;;19.23;10.32;;;;;;;11.34;81.46;98811.36;1735025;81;21040;-80
2022/05/10 06:07:28;;;;;;;18.73;9.90;;;;;;;11.55;81.51;98814.98;1746690;80;21099;-81
2022/05/10 06:09:54;;;;;;;18.85;10.05;;;;;;;11.84;80.90;98813.98;1730952;82;21639;-86
2022/05/10 06:12:20;;;;;;;16.90;9.65;;;;;;;12.13;80.20;98809.70;1735514;82;20953;-86
2022/05/10 06:14:46;;;;;;;14.68;8.70;;;;;;;12.38;79.68;98810.77;1741904;82;20917;-84
2022/05/10 06:17:12;;;;;;;21.73;9.48;;;;;;;12.65;77.61;98805.88;1733403;81;21535;-87
2022/05/10 06:19:39;;;;;;;13.40;7.33;;;;;;;12.92;77.25;98808.83;1720079;82;21598;-81
2022/05/10 06:22:06;;;;;;;13.68;8.85;;;;;;;13.25;78.35;98799.23;1706688;82;21283;-87
2022/05/10 06:24:32;;;;;;;16.75;8.83;;;;;;;13.44;76.26;98806.23;1729127;80;21008;-81
2022/05/10 06:26:58;;;;;;;12.88;8.80;;;;;;;13.50;75.43;98803.73;1729330;81;20899;-86
2022/05/10 06:29:24;;;;;;;14.43;8.55;;;;;;;13.66;75.08;98800.38;1735621;82;21004;-81
2022/05/10 06:31:49;;;;;;;16.32;11.15;;;;;;;13.79;75.34;98793.78;1731542;80;20988;-80
2022/05/10 06:34:16;;;;;;;20.30;10.90;;;;;;;14.08;75.48;98789.77;1723558;82;21162;-80
2022/05/10 06:36:42;;;;;;;20.00;11.75;;;;;;;14.32;72.38;98789.86;1734940;81;21092;-81
2022/05/10 06:39:08;;;;;;;22.50;11.05;;;;;;;14.34;71.82;98789.02;1708516;82;20907;-88
2022/05/10 06:41:34;;;;;;;15.70;10.13;;;;;;;14.42;72.75;98785.41;1726724;82;21040;-81
2022/05/10 06:44:01;;;;;;;27.70;18.55;;;;;;;14.75;72.47;98786.50;1715348;80;21076;-88
2022/05/10 06:46:27;;;;;;;31.35;19.17;;;;;;;14.93;71.54;98785.77;1742845;80;21900;-88
2022/05/10 06:48:53;;;;;;;30.32;13.58;;;;;;;15.05;70.65;98786.75;1717426;81;21026;-89
2022/05/10 06:51:21;;;;;;;21.68;13.98;;;;;;;15.24;70.14;98780.78;1736230;80;21012;-89
2022/05/10 06:53:47;;;;;;;21.40;14.68;;;;;;;15.46;68.33;98783.76;1727648;80;21052;-87
2022/05/10 06:56:13;;;;;;;18.82;11.68;;;;;;;15.85;68.57;98784.09;1721139;80;21069;-88
2022/05/10 06:58:39;;;;;;;18.98;10.28;;;;;;;16.45;68.65;98787.53;1726930;80;21323;-88
2022/05/10 07:01:10;;;;;;;12.73;7.12;;;;;;;16.75;66.02;98787.58;1727866;80;21016;-87
2022/05/10 07:03:34;;;;;;;14.37;8.13;;;;;;;17.01;66.62;98782.47;1727036;80;21103;-89
2022/05/10 07:06:01;;;;;;;13.72;6.85;;;;;;;17.19;64.53;98783.73;1728479;80;21706;-86
2022/05/10 07:08:27;;;;;;;11.55;6.62;;;;;;;17.33;62.82;98775.49;1727490;80;21056;-86
2022/05/10 07:10:53;;;;;;;11.15;6.72;;;;;;;17.55;63.94;98772.59;1724932;80;21177;-88
2022/05/10 07:13:23;;;;;;;15.53;7.75;;;;;;;17.72;64.18;98771.42;1728301;80;21425;-88
2022/05/10 07:15:49;;;;;;;19.27;11.48;;;;;;;17.97;59.31;98777.70;1722956;80;21014;-88
2022/05/10 07:18:16;;;;;;;16.25;10.65;;;;;;;18.56;57.96;98765.30;1715633;81;21055;-88
2022/05/10 07:20:41;;;;;;;10.60;6.50;;;;;;;19.22;58.81;98769.56;1718827;80;21094;-88
2022/05/10 07:23:08;;;;;;;18.42;8.08;;;;;;;20.02;61.08;98767.50;1716072;80;21176;-88
2022/05/10 07:25:34;;;;;;;11.12;5.70;;;;;;;20.78;60.51;98767.74;1717410;82;21126;-90
2022/05/10 07:28:00;;;;;;;15.13;6.20;;;;;;;21.36;57.52;98764.83;1732480;80;22596;-90
2022/05/10 07:30:27;;;;;;;20.08;5.33;;;;;;;21.68;55.11;98769.67;1737543;80;21076;-89
2022/05/10 07:32:53;;;;;;;8.55;5.28;;;;;;;21.48;49.86;98762.75;1731346;80;21061;-88
2022/05/10 07:37:51;;;;;;;11.75;5.37;;;;;;;21.64;45.52;98765.98;1704925;81;21056;-87
2022/05/10 07:40:17;;;;;;;7.75;4.62;;;;;;;22.13;48.53;98758.02;1694001;82;21064;-88
2022/05/10 07:42:44;;;;;;;14.98;4.78;;;;;;;22.67;44.64;98752.45;1736699;80;37814;-88
2022/05/10 07:45:11;;;;;;;10.80;5.00;;;;;;;23.54;48.62;98757.71;1722847;81;20949;-88
2022/05/10 07:47:39;;;;;;;8.85;4.37;;;;;;;23.95;46.85;98753.06;1729123;80;21686;-88
2022/05/10 07:50:07;;;;;;;9.03;3.98;;;;;;;24.64;46.87;98751.87;1727408;80;21045;-88
2022/05/10 07:52:33;;;;;;;8.15;3.67;;;;;;;24.59;44.36;98748.55;1724222;80;20967;-88
2022/05/10 07:55:00;;;;;;;7.37;4.00;;;;;;;24.19;39.39;98756.33;1718356;82;20961;-87
2022/05/10 07:57:26;;;;;;;9.75;3.80;;;;;;;24.47;41.62;98754.96;1716762;80;21433;-87
2022/05/10 07:59:51;;;;;;;8.68;3.92;;;;;;;24.37;38.93;98755.48;1733649;80;21019;-89
2022/05/10 08:02:18;;;;;;;15.40;5.35;;;;;;;24.37;38.44;98756.86;1721540;80;20890;-90
2022/05/10 08:04:43;;;;;;;10.40;4.33;;;;;;;24.37;38.44;98756.86;1715579;81;21047;-88
2022/05/10 08:07:09;;;;;;;5.53;3.58;;;;;;;24.40;39.72;98758.33;1731568;80;20901;-88
2022/05/10 08:09:35;;;;;;;6.35;3.85;;;;;;;23.07;40.35;98758.73;1727790;80;20938;-89
2022/05/10 08:12:02;;;;;;;7.22;3.42;;;;;;;22.09;41.52;98754.88;1717675;80;21122;-90
2022/05/10 08:14:28;;;;;;;4.22;2.87;;;;;;;20.71;40.80;98757.80;1732826;80;21084;-89
2022/05/10 08:16:53;;;;;;;11.85;3.58;;;;;;;20.18;43.57;98753.49;1734057;80;20889;-88
2022/05/10 08:19:19;;;;;;;7.72;3.98;;;;;;;19.64;45.01;98753.78;1719741;80;20893;-90
2022/05/10 08:21:45;;;;;;;5.00;3.50;;;;;;;19.35;45.96;98759.03;1734911;80;22414;-90
2022/05/10 08:24:11;;;;;;;4.80;3.42;;;;;;;19.25;46.35;98753.28;1734395;80;21813;-91
2022/05/10 08:26:37;;;;;;;8.85;4.12;;;;;;;19.44;46.65;98758.49;1733564;80;20873;-90
2022/05/10 08:29:03;;;;;;;6.08;3.98;;;;;;;19.60;47.19;98752.01;1731953;80;20951;-92
2022/05/10 08:31:29;;;;;;;9.05;4.42;;;;;;;21.06;45.65;98751.59;1727725;80;20934;-88
2022/05/10 08:33:55;;;;;;;11.53;3.70;;;;;;;22.21;42.29;98741.92;1722698;80;20882;-91
2022/05/10 08:36:22;;;;;;;6.87;3.35;;;;;;;21.80;41.90;98739.19;1720756;81;21054;-91
2022/05/10 08:38:48;;;;;;;7.22;4.00;;;;;;;22.40;42.82;98741.44;1718229;80;21021;-89
2022/05/10 08:41:36;;;;;;;13.78;4.40;;;;;;;22.37;42.25;98745.44;1718241;80;20966;-91
2022/05/10 08:44:17;;;;;;;6.72;4.03;;;;;;;21.95;41.98;98743.50;1706902;80;21015;-90
2022/05/10 08:46:46;;;;;;;8.90;6.87;;;;;;;22.91;41.26;98737.10;1731029;80;21086;-88
2022/05/10 08:49:22;;;;;;;8.08;3.75;;;;;;;24.87;38.61;98737.42;1735534;80;21128;-91
2022/05/10 08:51:48;;;;;;;5.97;3.25;;;;;;;24.96;32.44;98732.50;1728647;80;21060;-90
2022/05/10 08:54:14;;;;;;;9.38;3.75;;;;;;;25.71;34.24;98734.31;1734480;80;20945;-92
2022/05/10 08:56:50;;;;;;;6.08;3.42;;;;;;;26.71;31.48;98724.66;1733520;80;20909;-90
2022/05/10 08:59:34;;;;;;;8.93;3.25;;;;;;;27.33;32.61;98722.55;1728597;80;21108;-91
2022/05/10 09:02:04;;;;;;;4.47;3.25;;;;;;;27.84;29.57;98719.33;1722855;80;21125;-92
2022/05/10 09:04:53;;;;;;;10.40;4.45;;;;;;;28.47;30.22;98722.72;1725690;80;21127;-90
2022/05/10 09:07:56;;;;;;;6.53;3.37;;;;;;;29.57;28.12;98720.70;1730804;80;21128;-91
2022/05/10 09:10:53;;;;;;;8.43;2.87;;;;;;;30.05;27.11;98721.37;1692240;80;21504;-91
2022/05/10 09:13:20;;;;;;;10.98;3.20;;;;;;;29.48;27.55;98714.03;1722685;80;21037;-91
2022/05/10 09:15:58;;;;;;;5.58;3.05;;;;;;;30.01;26.52;98711.59;1735664;80;21150;-90
2022/05/10 09:18:26;;;;;;;;;;;;;;;30.72;26.21;98706.05;1722893;80;21001;-90
2022/05/10 09:20:55;;;;;;;;;;;;;;;30.94;24.15;98707.67;1715076;82;20425;-90
2022/05/10 09:23:45;;;;;;;7.78;3.10;;;;;;;30.59;23.44;98705.01;1729632;80;20178;-90
2022/05/10 09:26:12;;;;;;;7.92;3.00;;;;;;;29.65;23.54;98706.39;1729570;81;20994;-89
2022/05/10 09:28:59;;;;;;;4.63;2.47;;;;;;;28.51;24.43;98695.67;1731105;80;21987;-92
2022/05/10 09:37:45;;;;;;;8.23;2.98;;;;;;;31.69;22.96;98681.79;1722198;80;22062;-92
2022/05/10 09:40:43;;;;;;;8.98;2.52;;;;;;;33.05;23.58;98676.88;1724756;80;21043;-93
2022/05/10 09:43:26;;;;;;;8.35;2.55;;;;;;;33.46;23.04;98676.92;1730278;80;21504;-91
2022/05/10 09:46:21;;;;;;;1103.50;403.95;;;;;;;30.16;24.83;98675.33;1733274;80;21473;-91
2022/05/10 09:48:47;;;;;;;561.05;174.97;;;;;;;30.59;23.90;98668.66;1725662;80;21037;-90
2022/05/10 09:51:36;;;;;;;10.00;4.30;;;;;;;29.94;23.69;98672.44;1732721;80;20957;-91
2022/05/10 09:54:21;;;;;;;10.18;2.70;;;;;;;30.52;23.87;98656.66;1732285;80;20989;-90
2022/05/10 09:56:50;;;;;;;7.72;2.85;;;;;;;30.21;22.66;98660.38;1719476;80;21023;-88
2022/05/10 09:59:31;;;;;;;9.93;3.20;;;;;;;30.95;23.68;98655.31;1717372;80;21087;-91
2022/05/10 10:01:58;;;;;;;9.05;3.05;;;;;;;31.90;23.12;98660.55;1717854;80;21084;-91
2022/05/10 10:04:37;;;;;;;5.78;2.62;;;;;;;33.19;21.79;98652.09;1710193;80;21505;-91
2022/05/10 10:07:08;;;;;;;8.80;2.90;;;;;;;32.32;20.71;98660.17;1723935;80;21166;-91
2022/05/10 10:09:37;;;;;;;3.80;2.17;;;;;;;33.96;21.11;98658.72;1720203;80;21752;-91
2022/05/10 10:12:04;;;;;;;14.83;2.95;;;;;;;35.12;19.54;98653.97;1723055;80;21167;-91
2022/05/10 10:14:44;;;;;;;7.58;2.40;;;;;;;32.48;19.74;98646.45;1715472;81;21093;-91
2022/05/10 10:17:26;;;;;;;10.78;2.35;;;;;;;33.68;20.42;98650.80;1720203;80;21082;-90
2022/05/10 10:19:57;;;;;;;5.47;2.40;;;;;;;34.38;19.49;98643.28;1731836;80;21040;-91
2022/05/10 10:22:34;;;;;;;5.12;2.25;;;;;;;35.14;18.64;98637.47;1730442;80;21123;-84
2022/05/10 10:25:17;;;;;;;4.43;2.50;;;;;;;35.89;18.92;98631.80;1727626;80;21619;-84
2022/05/10 10:28:20;;;;;;;10.08;3.72;;;;;;;35.95;18.97;98624.44;1734323;80;21046;-84
2022/05/10 10:31:15;;;;;;;8.33;3.30;;;;;;;33.55;18.36;98630.87;1733827;80;21441;-84
2022/05/10 10:33:48;;;;;;;9.40;2.80;;;;;;;35.09;18.04;98630.11;1629178;81;21001;-84
2022/05/10 10:36:39;;;;;;;9.48;3.40;;;;;;;34.97;17.96;98623.09;1736490;80;21139;-90
2022/05/10 10:39:26;;;;;;;7.60;2.50;;;;;;;34.32;18.11;98612.02;1710920;80;21056;-92
2022/05/10 10:42:09;;;;;;;9.20;2.45;;;;;;;34.46;17.80;98624.49;1723222;80;21159;-90
2022/05/10 10:44:37;;;;;;;7.47;2.60;;;;;;;34.49;18.21;98615.19;1685668;83;21072;-91
2022/05/10 10:47:35;;;;;;;3.90;1.90;;;;;;;34.99;17.54;98603.74;1726533;80;21524;-90
2022/05/10 10:50:22;;;;;;;11.43;2.87;;;;;;;35.41;16.86;98604.99;1720333;80;21988;-88
2022/05/10 10:52:48;;;;;;;7.70;2.70;;;;;;;34.36;17.55;98597.91;1731153;80;21032;-90
2022/05/10 10:55:18;;;;;;;7.03;2.25;;;;;;;33.78;17.62;98600.70;1725360;81;21045;-91
2022/05/10 10:58:05;;;;;;;4.85;2.10;;;;;;;33.71;17.74;98599.37;1737257;80;21001;-90
2022/05/10 11:01:03;;;;;;;4.08;2.10;;;;;;;35.64;15.39;98588.64;1734701;80;21132;-89
2022/05/10 11:03:51;;;;;;;9.60;5.25;;;;;;;33.88;17.75;98584.91;1734547;81;21165;-91
2022/05/10 11:06:22;;;;;;;3.70;2.45;;;;;;;35.15;17.49;98579.12;1726924;81;21100;-91
2022/05/10 11:09:09;;;;;;;5.90;2.42;;;;;;;34.73;16.92;98583.66;1726371;80;21100;-91
2022/05/10 11:12:06;;;;;;;7.10;1.95;;;;;;;34.28;17.26;98574.72;1702819;80;21595;-91
2022/05/10 11:14:53;;;;;;;11.35;3.87;;;;;;;36.16;16.45;98572.42;1734790;80;21044;-92
2022/05/10 11:17:39;;;;;;;7.08;2.42;;;;;;;36.91;15.85;98569.19;1725798;80;21089;-91
2022/05/10 11:20:13;;;;;;;5.17;2.80;;;;;;;37.34;16.08;98569.45;1734105;80;21023;-91
2022/05/10 11:22:41;;;;;;;5.80;2.17;;;;;;;37.79;14.21;98564.53;1726703;80;21104;-92
2022/05/10 11:25:33;;;;;;;6.22;2.30;;;;;;;35.03;15.50;98557.39;1734581;80;21005;-92
2022/05/10 11:28:31;;;;;;;8.25;2.55;;;;;;;36.19;15.73;98565.89;1717166;81;21048;-90
2022/05/10 11:31:27;;;;;;;7.95;2.30;;;;;;;35.21;15.76;98557.66;1730656;80;21398;-91
2022/05/10 11:34:14;;;;;;;3.27;2.20;;;;;;;36.97;15.98;98561.15;1731266;80;21009;-92
2022/05/10 11:36:42;;;;;;;3.63;2.27;;;;;;;37.83;14.60;98549.66;1722750;80;21237;-91
2022/05/10 11:40:03;;;;;;;3.22;1.92;;;;;;;37.79;15.24;98551.81;1739976;80;21044;-90
2022/05/10 11:43:04;;;;;;;10.45;3.12;;;;;;;37.31;14.78;98552.00;1721058;80;21155;-92
2022/05/10 11:45:50;;;;;;;7.05;2.17;;;;;;;38.18;14.72;98539.88;1735671;80;21100;-92
2022/05/10 11:48:56;;;;;;;5.33;2.20;;;;;;;37.56;13.19;98536.52;1721864;80;20987;-91
2022/05/10 11:51:47;;;;;;;;;;;;;;;38.41;14.60;98533.10;1704938;81;21427;-92
2022/05/10 11:54:39;;;;;;;4.55;1.90;;;;;;;37.17;15.11;98527.73;1735232;80;20839;-90
2022/05/10 11:57:12;;;;;;;5.22;2.15;;;;;;;37.33;14.94;98522.05;1734794;80;21128;-91
2022/05/10 11:59:40;;;;;;;5.78;2.55;;;;;;;38.08;14.59;98517.77;1712321;80;21102;-91
2022/05/10 12:02:07;;;;;;;9.65;2.10;;;;;;;36.45;14.86;98511.89;1738308;80;21112;-90
2022/05/10 12:04:44;;;;;;;7.08;1.90;;;;;;;35.28;14.75;98515.28;1720023;81;21107;-91